CYYL

Lynn Lake Airport

Lynn Lake, Manitoba, Canada
METAR CYYL 161000Z AUTO 13007KT 9SM OVC015 M24/M26 A2974 RMK SLP119
Observed Flight Rules
Dec-16 @ 10:00 UTC (45 minutes ago) Marginal Visual Flight Rules
Wind Visibility Clouds
130° at 7 knots 9 miles
  • Overcast at 1,500' AGL
Temperatures Readings
Current -24°C / -11°F
Dewpoint -26°C / -15°F
Humidity 84%
Altimeter 29.74" Hg
Pressure 1011.9 hPa
Elevation 357
METAR CYYL 161000Z AUTO 13007KT 9SM OVC015 M24/M26 A2974 RMK SLP119
Observed Flight Rules
Dec-16 @ 10:00 UTC
(45 minutes ago)
MVFR
Wind Visibility
130° at 7 knots 9 miles
Clouds
  • Overcast at 1,500' AGL
Temperature Dewpoint
-24°C / -11°F -26°C / -15°F
Humidity Altimeter Pressure
84% 29.74" Hg 1011.9 hPa